Date,TemperatureHighF,TemperatureAvgF,TemperatureLowF,DewpointHighF,DewpointAvgF,DewpointLowF,HumidityHigh,HumidityAvg,HumidityLow,PressureMaxIn,PressureMinIn,WindSpeedMaxMPH,WindSpeedAvgMPH,GustSpeedMaxMPH,PrecipitationSumIn
2013-1-1,33.8,25.8,11.8,17.2,4.0,-10.0,59,39,32,29.68,29.41,17,3,17,0.00
2013-1-2,24.6,12.5,4.5,4.5,-8.4,-15.8,50,38,35,29.91,29.62,8,2,8,0.00
2013-1-3,14.5,5.9,-2.0,-7.1,-14.7,-21.4,38,37,35,29.94,29.71,6,2,6,0.00
2013-1-4,35.4,25.1,9.1,12.1,3.5,-12.4,59,39,35,29.74,29.53,13,3,13,0.00
2013-1-5,36.3,32.0,21.2,12.4,8.3,0.0,43,37,30,29.97,29.56,19,3,19,0.00
2013-1-6,37.9,29.5,21.2,15.8,11.5,2.2,54,47,40,29.94,29.65,6,1,6,0.00
2013-1-7,32.2,27.9,17.1,16.8,8.1,-0.6,57,43,32,30.09,29.68,11,2,11,0.00
2013-1-8,40.6,23.3,10.9,16.3,5.2,-5.3,53,46,34,30.12,29.94,5,1,5,0.00
2013-1-9,41.4,26.4,17.2,19.2,10.4,3.1,56,51,36,30.15,29.71,17,2,17,0.00
2013-1-10,41.9,37.9,29.1,18.0,12.3,9.4,44,35,30,30.30,29.76,20,4,20,0.00
2013-1-11,35.6,29.7,23.7,23.2,14.0,8.2,67,52,40,30.30,29.91,6,1,6,0.00
2013-1-12,32.9,32.9,32.9,23.2,23.2,23.2,67,67,67,29.94,29.85,4,1,4,0.00
2013-1-13,32.9,32.9,32.9,23.2,23.2,23.2,67,67,67,29.91,29.71,6,1,6,0.00
2013-1-14,32.9,32.9,32.9,23.2,23.2,23.2,67,67,67,30.03,29.62,12,2,12,0.00
2013-1-15,36.1,32.1,27.5,23.2,14.6,11.4,67,48,40,30.09,29.94,6,1,6,0.00
2013-1-16,30.2,29.8,29.5,15.8,15.1,14.4,55,54,52,29.97,29.94,2,0,2,0.00
2013-1-17,35.6,29.2,23.7,26.2,15.2,0.7,74,57,35,29.85,29.56,10,2,10,0.00
2013-1-18,23.7,18.0,12.6,0.7,-5.5,-8.8,41,34,30,30.15,29.82,19,3,19,0.00
2013-1-19,41.9,30.9,16.9,13.2,6.4,-3.2,42,35,29,30.03,29.53,10,3,10,0.00
2013-1-20,41.9,33.9,23.5,22.0,10.1,-4.0,50,37,26,29.71,29.29,28,6,28,0.00
2013-1-21,26.8,21.9,17.1,6.3,-1.7,-9.0,52,35,27,29.82,29.50,12,2,12,0.00
2013-1-22,21.9,17.0,9.5,6.2,-2.8,-12.1,51,41,33,29.82,29.47,16,3,16,0.00
2013-1-23,12.0,7.7,1.9,-9.8,-13.7,-18.9,36,36,36,29.85,29.76,17,3,17,0.00
2013-1-24,17.1,6.2,-3.8,-8.2,-17.5,-24.0,36,32,26,29.97,29.82,13,3,229,0.00
2013-1-25,18.7,11.9,5.0,-6.7,-14.8,-21.7,36,28,25,30.06,29.79,8,2,8,0.00
2013-1-26,20.8,13.5,8.8,-3.1,-10.1,-16.5,38,34,25,29.97,29.76,9,2,9,0.00
2013-1-27,26.4,15.6,7.0,0.0,-11.1,-18.6,100,29,24,30.21,29.97,10,2,11,0.00
2013-1-28,21.4,16.4,10.9,6.9,-3.0,-11.9,100,42,34,30.21,29.74,4,1,4,0.00
2013-1-29,32.4,27.3,21.4,23.9,13.3,6.9,71,55,47,29.91,29.76,5,1,5,0.00
2013-1-30,49.8,37.7,32.4,48.3,32.4,23.7,95,81,70,29.85,29.12,2,0,2,0.00
2013-1-31,56.7,42.5,29.5,55.2,27.7,1.9,97,61,30,29.29,28.61,17,3,20,0.00
2013-2-1,27.9,24.9,20.1,1.8,-1.3,-6.3,33,31,29,29.82,29.29,17,5,17,0.00
2013-2-2,26.8,21.3,13.3,0.7,-3.9,-9.2,37,32,29,29.94,29.71,12,2,12,0.00
2013-2-3,29.8,24.4,18.3,4.6,0.9,-2.5,43,35,32,29.79,29.47,6,1,6,0.00
2013-2-4,27.1,22.5,17.1,1.6,-2.3,-8.7,43,33,26,29.65,29.47,19,4,19,0.00
2013-2-5,29.1,20.1,10.0,3.9,-3.6,-11.6,44,35,31,29.76,29.62,9,1,9,0.00
2013-2-6,42.4,28.3,21.6,29.5,4.5,-7.2,60,37,23,30.03,29.62,14,3,14,0.00
2013-2-7,28.2,21.6,13.6,-1.4,-7.1,-12.7,30,27,26,30.27,30.03,9,2,9,0.00
2013-2-8,24.6,22.8,18.7,5.9,1.8,-5.4,56,40,27,30.18,29.56,14,3,16,0.00
2013-2-9,22.6,17.8,12.7,6.8,-1.4,-9.7,59,43,34,30.00,29.50,26,6,26,0.00
2013-2-10,32.0,17.1,2.5,4.1,-6.4,-18.9,40,34,30,30.21,30.00,6,2,229,0.00
2013-2-11,32.5,23.6,13.8,25.2,10.2,-5.4,74,56,41,30.06,29.35,4,1,4,0.00
2013-2-12,38.3,35.5,32.0,26.2,18.0,13.5,74,49,39,29.62,29.35,17,3,17,0.00
2013-2-13,37.0,32.8,27.7,13.9,11.5,8.2,46,41,34,29.59,29.47,6,2,9,0.00
2013-2-14,41.7,30.4,21.9,15.9,10.5,5.7,53,43,31,29.71,29.47,10,2,10,0.00
2013-2-15,48.0,34.8,23.7,20.0,13.4,8.1,55,42,28,29.71,29.59,10,2,12,0.00
2013-2-16,37.4,32.2,24.8,19.8,11.2,-0.9,58,42,31,29.71,29.56,19,3,19,0.00
2013-2-17,25.0,19.1,13.5,-1.0,-5.5,-10.9,34,33,30,29.56,29.26,26,6,26,0.00
2013-2-18,30.4,19.3,10.4,-2.1,-8.0,-13.8,34,29,23,29.85,29.47,18,3,18,0.00
2013-2-19,40.5,27.5,14.5,25.2,5.8,-7.4,64,40,31,29.88,29.32,8,1,8,0.00
2013-2-20,34.7,28.8,24.6,24.4,6.9,0.9,67,40,32,29.50,29.32,22,5,22,0.00
2013-2-21,28.4,24.9,20.7,4.9,1.5,-2.7,42,36,31,30.00,29.50,20,5,20,0.00
2013-2-22,37.9,30.5,21.9,12.5,8.7,3.8,47,40,32,30.15,30.00,12,2,12,0.00
2013-2-23,35.2,33.4,31.8,22.8,16.6,10.5,66,51,39,30.03,29.65,8,1,8,0.00
2013-2-24,36.1,33.7,32.5,27.1,24.9,0.0,74,70,65,29.68,29.47,7,1,7,0.00
2013-2-25,35.2,32.8,29.8,26.8,24.8,21.6,76,72,69,29.97,29.65,3,0,3,0.00
2013-2-26,37.9,34.3,31.8,26.3,22.9,17.6,76,63,50,30.09,29.91,4,1,4,0.00
2013-2-27,34.3,33.9,33.3,19.4,18.3,17.9,55,53,52,29.91,29.85,6,2,6,0.00
2013-2-28,40.3,34.3,31.6,29.9,26.6,25.0,78,73,60,29.41,29.29,6,1,6,0.00
2013-3-1,37.6,34.2,30.0,30.5,20.6,13.7,80,59,41,29.47,29.29,13,2,13,0.00
2013-3-2,37.6,33.8,30.7,15.9,14.1,11.1,48,44,39,29.47,29.38,10,3,10,0.00
2013-3-3,35.2,30.7,27.9,17.4,12.4,9.6,52,46,41,29.47,29.35,11,3,11,0.00
2013-3-4,36.7,31.2,27.0,11.6,9.2,6.9,44,39,33,29.59,29.38,18,4,18,0.00
2013-3-5,44.2,35.6,29.5,17.7,12.3,8.7,44,38,31,29.82,29.56,12,3,12,0.00
2013-3-6,37.8,34.7,32.2,23.1,16.9,12.9,61,48,41,29.91,29.79,15,4,15,0.00
2013-3-7,36.9,33.9,31.8,17.9,14.8,12.2,55,45,39,29.91,29.82,15,4,15,0.00
2013-3-8,40.1,33.6,30.2,18.5,15.2,10.1,60,47,33,29.97,29.76,21,5,21,0.00
2013-3-9,54.9,39.2,27.7,19.4,11.7,7.1,47,33,20,30.09,29.94,12,3,12,0.00
2013-3-10,34.0,27.4,24.8,15.4,9.2,7.4,50,46,41,30.15,30.06,4,1,4,0.00
2013-3-14,33.4,27.8,21.6,11.8,2.3,-4.3,41,33,28,29.65,29.47,17,4,17,0.00
2013-3-15,33.6,24.1,18.7,16.5,2.1,-5.0,52,38,33,29.65,29.38,12,4,12,0.00
2013-3-16,36.9,30.1,24.3,11.1,4.0,-0.9,43,32,27,29.65,29.47,11,3,11,0.00
2013-3-17,34.9,27.5,21.4,4.4,-1.0,-9.0,39,29,22,30.09,29.62,18,3,18,0.00
2013-3-18,36.1,26.5,14.2,9.8,-2.2,-10.4,43,29,22,30.21,29.91,6,2,6,0.00
2013-3-19,34.0,30.8,28.0,19.9,15.6,9.2,58,53,42,29.91,29.44,6,0,6,0.00
2013-3-20,36.1,28.8,21.6,14.4,9.2,4.4,56,44,32,29.53,29.44,18,2,18,0.00
2013-3-21,27.5,27.5,27.5,5.2,5.2,5.2,38,38,38,29.56,29.35,7,2,7,0.00
2013-3-22,27.5,27.5,27.5,5.2,5.2,5.2,38,38,38,29.50,29.35,3,0,3,0.04
2013-3-23,27.5,27.5,27.5,5.2,5.2,5.2,38,38,38,29.56,29.41,17,2,17,0.00
2013-3-24,43.3,33.6,27.5,13.5,8.1,5.2,38,34,29,29.62,29.50,13,3,17,0.00
2013-3-25,41.2,34.7,28.9,14.1,11.7,8.3,43,38,32,29.56,29.26,4,2,4,0.00
2013-3-26,46.4,38.2,30.9,18.6,13.4,6.3,50,37,27,29.56,29.32,12,2,12,0.00
2013-3-27,52.5,38.6,25.3,21.1,12.7,7.0,51,35,23,29.68,29.53,16,3,16,0.00
2013-3-28,49.3,39.6,35.1,24.5,18.1,14.9,55,42,29,29.79,29.65,10,1,10,0.00
2013-3-29,52.2,41.0,30.7,32.8,18.5,0.0,96,42,27,29.82,29.74,115,2,115,0.00
2013-3-30,55.9,41.8,28.2,25.0,14.6,6.8,56,36,20,29.85,29.76,16,2,16,0.00
2013-3-31,55.4,40.4,27.0,27.6,13.9,6.6,59,36,20,29.85,29.50,12,4,12,0.00
2013-4-1,55.0,42.2,37.8,36.1,27.2,14.4,70,56,31,29.50,29.23,8,8,8,0.00
2013-4-2,62.6,35.3,27.0,22.1,6.2,1.0,33,29,21,29.68,29.53,10,7,10,0.00
2013-4-3,43.9,34.4,27.0,6.1,2.6,-0.9,31,26,20,29.91,29.65,17,6,17,0.00
2013-4-4,59.4,43.6,27.1,20.5,8.3,0.2,33,24,18,30.03,29.71,12,3,12,0.00
2013-4-5,56.5,43.8,34.5,18.6,13.3,8.6,45,30,20,29.74,29.41,15,3,15,0.00
2013-4-6,55.2,35.7,27.3,20.0,3.3,-2.8,32,25,19,30.06,29.68,19,4,19,0.00
2013-4-7,56.7,40.5,25.5,26.8,11.9,-2.0,48,31,21,30.03,29.68,20,4,20,0.00
2013-4-8,63.9,49.4,36.3,27.9,24.0,17.4,64,39,21,29.85,29.71,11,2,226,0.00
2013-4-9,64.2,52.8,42.3,43.0,30.6,22.2,76,45,26,29.79,29.62,16,3,16,0.00
2013-4-10,51.6,48.0,46.2,33.1,29.5,26.7,60,49,39,29.74,29.65,10,2,10,0.00
2013-4-11,46.6,41.6,36.7,38.1,28.9,19.4,75,61,40,29.91,29.62,10,2,10,0.00
2013-4-12,37.0,33.9,32.7,26.9,25.8,22.8,77,72,64,29.94,29.59,8,1,8,0.00
2013-4-13,50.2,40.8,33.1,30.1,26.8,23.5,79,59,38,29.71,29.53,10,2,10,0.00
2013-4-14,48.6,41.8,36.3,30.4,21.5,13.6,73,47,28,29.97,29.68,15,3,15,0.00
2013-4-15,60.3,45.8,29.5,24.3,19.7,14.7,57,37,24,30.15,29.97,10,2,10,0.00
2013-4-16,62.4,52.0,42.8,43.8,29.4,16.6,68,43,29,30.09,29.76,21,4,21,0.00
2013-4-17,63.1,53.3,42.1,44.2,24.2,14.2,70,34,21,30.12,29.82,16,3,16,0.00
2013-4-18,62.6,48.6,33.1,32.0,19.4,13.9,49,33,21,30.21,29.85,19,3,19,0.00
2013-4-19,70.2,61.3,50.9,52.8,43.1,32.0,70,52,36,29.85,29.35,22,4,22,0.00
2013-4-20,58.3,46.8,37.0,47.4,25.0,8.1,71,45,27,30.03,29.44,17,4,18,0.00
2013-4-21,53.8,42.5,32.7,17.1,10.7,6.1,33,27,20,30.41,30.03,13,3,13,0.00
2013-4-22,58.5,44.1,30.6,19.8,13.1,8.7,41,29,19,30.50,30.30,10,2,10,0.00
2013-4-23,43.0,39.7,34.9,24.9,19.6,13.8,53,44,39,30.36,29.94,8,2,8,0.00
2013-4-24,40.8,40.7,40.5,27.7,25.9,24.9,60,55,53,29.94,29.82,5,2,5,0.00
2013-4-25,61.7,52.4,41.5,39.1,22.3,13.2,61,32,19,30.06,29.50,15,4,15,0.00
2013-4-26,63.0,48.2,32.7,25.0,18.7,12.7,45,32,21,30.18,30.06,8,2,8,0.00
2013-4-27,67.3,52.0,36.1,27.5,21.5,15.6,50,32,18,30.21,30.00,8,2,8,0.00
2013-4-28,73.4,55.3,36.3,29.4,21.3,16.0,45,28,16,30.09,29.88,12,2,12,0.00
2013-4-29,67.6,57.0,47.8,29.6,22.8,15.3,36,27,23,30.03,29.91,12,3,12,0.00
2013-4-30,74.5,60.9,51.4,28.5,23.2,16.8,36,24,16,30.09,29.97,9,2,9,0.00
2013-5-1,77.0,59.1,41.7,28.4,21.9,16.7,40,25,15,30.21,30.09,8,2,10,0.00
2013-5-2,57.0,51.0,49.3,25.1,23.7,20.2,38,34,25,30.24,30.18,3,0,3,0.00
2013-5-3,49.5,49.5,49.5,24.9,24.9,24.9,38,38,38,30.18,30.18,0,0,0,0.00
2013-5-4,49.5,49.5,49.5,24.9,24.9,24.9,38,38,38,30.18,30.18,0,0,0,0.00
2013-5-5,49.5,49.5,49.5,24.9,24.9,24.9,38,38,38,30.18,30.18,0,0,0,0.00
2013-5-6,49.5,49.5,49.5,24.9,24.9,24.9,38,38,38,30.18,30.18,0,0,0,0.00
2013-5-7,49.5,49.5,49.5,24.9,24.9,24.9,38,38,38,30.18,30.18,0,0,0,0.00
2013-5-8,49.5,49.5,49.5,24.9,24.9,24.9,38,38,38,30.18,30.18,0,0,0,0.00
2013-6-1,64.6,64.6,64.6,31.6,31.6,31.6,29,29,29,0.00,40.00,1,1,1,0.00
2013-6-4,64.6,54.6,49.5,35.5,33.2,30.8,58,45,29,29.97,29.79,115,0,115,0.00
2013-6-5,74.1,61.7,51.3,39.8,34.2,29.0,53,37,22,30.00,29.85,6,1,6,0.00
2013-6-6,71.6,62.2,54.5,45.3,39.7,32.8,70,46,27,29.91,29.82,6,1,6,0.00
2013-6-7,54.5,53.2,52.5,48.1,46.2,43.8,81,77,72,29.85,29.53,5,0,6,0.00
2013-6-8,67.8,62.8,56.5,54.4,50.2,46.3,77,64,48,29.91,29.59,10,1,10,0.00
2013-6-9,75.0,64.7,54.9,45.0,41.9,37.3,67,45,27,30.03,29.88,9,1,10,0.00
2013-6-10,67.5,61.8,55.4,54.6,51.4,42.8,85,70,48,30.03,29.59,3,0,4,0.00
2013-6-11,59.0,57.6,55.8,55.1,53.7,51.3,88,87,85,29.56,29.38,1,0,3,0.00
2013-6-12,65.8,59.7,51.4,46.0,40.9,37.6,70,51,38,29.68,29.50,13,2,17,0.00
2013-6-13,61.9,55.4,53.4,55.3,49.9,48.1,85,82,75,29.62,29.50,5,0,5,0.00
2013-6-14,72.9,61.2,50.2,54.0,41.8,35.8,75,51,32,29.79,29.50,6,1,6,0.00
2013-6-15,74.7,63.0,52.3,44.1,36.6,32.3,61,40,22,29.76,29.65,11,1,11,0.00
2013-6-16,73.8,63.2,56.3,57.2,47.6,42.9,78,58,35,29.68,29.53,12,1,12,0.00
2013-6-17,77.0,66.7,61.9,53.3,49.2,40.1,72,56,30,29.74,29.59,11,1,11,0.00
2013-6-18,63.0,58.9,54.5,49.8,46.6,44.5,71,64,57,29.79,29.74,6,0,6,0.00
2013-6-21,81.9,68.1,57.2,51.0,42.2,35.9,65,42,20,30.06,29.94,6,1,6,0.00
2013-6-22,82.4,72.6,65.7,55.1,48.4,45.3,53,43,30,30.03,29.88,5,0,5,0.00
2013-6-23,88.3,77.3,69.3,62.5,56.7,48.8,70,51,31,29.88,29.74,8,1,8,0.00
2013-6-24,88.3,74.4,66.4,59.2,54.1,47.3,70,51,29,29.79,29.68,8,1,8,0.00
2013-6-25,87.1,72.5,66.9,65.6,59.1,48.5,81,67,29,29.68,29.53,10,1,10,0.00
2013-6-26,72.5,68.0,64.6,66.5,62.4,59.3,87,83,74,29.71,29.59,5,0,5,0.00
2013-6-27,79.5,70.3,60.4,66.2,57.0,53.1,84,64,42,29.62,29.38,5,0,6,0.00
2013-7-24,76.1,62.5,51.6,52.4,40.6,34.4,60,45,33,29.91,29.53,9,2,9,0.00
2013-7-25,69.1,65.1,62.2,50.6,47.0,40.0,64,53,37,29.91,29.82,6,0,6,0.00
2013-7-26,70.0,65.0,59.4,50.4,48.4,45.5,70,55,44,29.85,29.76,5,0,5,0.00
2013-7-27,71.1,65.0,62.4,55.0,52.3,49.5,69,64,53,29.85,29.76,4,0,4,0.00
2013-7-28,76.8,74.3,71.1,55.1,52.9,51.2,55,47,42,29.79,29.76,4,2,4,0.00
2013-7-30,77.7,72.1,65.3,45.1,41.2,37.3,48,33,24,29.97,29.82,7,1,7,0.00
2013-7-31,79.9,67.6,58.3,51.2,44.6,37.3,65,46,24,30.00,29.82,7,1,7,0.00